Time;durP1;ratioP1;P1;durP2;ratioP2;P2;SDS_P1;SDS_P2;PMS_P1;PMS_P2;Temp;Humidity;BMP_temperature;BMP_pressure;BME280_temperature;BME280_humidity;BME280_pressure;Samples;Min_cycle;Max_cycle;Signal;HPM_P1;HPM_P2
2022/03/01 00:00:44;;;;;;;0.00;0.00;;;;;;;;;;1730776;28;20246;-72
2022/03/01 00:01:36;;;;;;;0.08;0.08;;;;;;;;;;1732713;28;20203;-72
2022/03/01 00:02:28;;;;;;;0.00;0.00;;;;;;;;;;1732574;28;20664;-71
2022/03/01 00:03:20;;;;;;;0.05;0.05;;;;;;;;;;1726345;28;20540;-71
2022/03/01 00:16:04;;;;;;;0.00;0.00;;;;;;;;;;1725080;28;20252;-71
2022/03/01 00:16:56;;;;;;;0.00;0.00;;;;;;;;;;1737963;28;20251;-71
2022/03/01 00:17:48;;;;;;;0.20;0.20;;;;;;;;;;1732953;28;20251;-71
2022/03/01 00:18:39;;;;;;;0.10;0.10;;;;;;;;;;1732813;28;20207;-71
2022/03/01 00:19:33;;;;;;;0.17;0.17;;;;;;;;;;1733089;28;20334;-71
2022/03/01 00:20:24;;;;;;;0.00;0.00;;;;;;;;;;1730964;28;20586;-71
2022/03/01 00:21:16;;;;;;;0.00;0.00;;;;;;;;;;1734115;28;20196;-71
2022/03/01 00:22:08;;;;;;;0.10;0.10;;;;;;;;;;1733959;28;20208;-71
2022/03/01 00:23:00;;;;;;;0.00;0.00;;;;;;;;;;1733344;28;20495;-71
2022/03/01 00:23:51;;;;;;;0.00;0.00;;;;;;;;;;1733548;28;20203;-71
2022/03/01 00:24:43;;;;;;;0.00;0.00;;;;;;;;;;1738061;28;20358;-71
2022/03/01 00:25:35;;;;;;;0.03;0.03;;;;;;;;;;1734496;28;20687;-71
2022/03/01 00:26:27;;;;;;;0.00;0.00;;;;;;;;;;1732604;28;20504;-71
2022/03/01 00:27:18;;;;;;;0.00;0.00;;;;;;;;;;1732536;28;20599;-72
2022/03/01 00:28:10;;;;;;;0.10;0.10;;;;;;;;;;1733132;28;20207;-72
2022/03/01 00:29:01;;;;;;;0.00;0.00;;;;;;;;;;1732466;28;21096;-71
2022/03/01 00:29:54;;;;;;;0.00;0.00;;;;;;;;;;1739329;28;20256;-71
2022/03/01 00:30:45;;;;;;;0.05;0.05;;;;;;;;;;1733205;28;20514;-71
2022/03/01 00:31:38;;;;;;;0.00;0.00;;;;;;;;;;1733332;28;20210;-71
2022/03/01 00:32:30;;;;;;;0.00;0.00;;;;;;;;;;1731856;28;20204;-71
2022/03/01 00:33:22;;;;;;;0.00;0.00;;;;;;;;;;1732824;28;20592;-71
2022/03/01 00:34:13;;;;;;;0.10;0.10;;;;;;;;;;1733622;28;20208;-71
2022/03/01 00:35:05;;;;;;;0.00;0.00;;;;;;;;;;1733443;28;20203;-71
2022/03/01 00:35:57;;;;;;;0.03;0.03;;;;;;;;;;1730381;28;20239;-71
2022/03/01 00:36:49;;;;;;;0.20;0.20;;;;;;;;;;1733434;28;20504;-71
2022/03/01 00:37:40;;;;;;;0.00;0.00;;;;;;;;;;1732599;28;20660;-71
2022/03/01 00:38:32;;;;;;;0.10;0.10;;;;;;;;;;1732337;28;20207;-71
2022/03/01 00:39:23;;;;;;;0.05;0.05;;;;;;;;;;1733750;28;20200;-71
2022/03/01 00:40:19;;;;;;;0.10;0.10;;;;;;;;;;1732630;28;20217;-72
2022/03/01 00:41:10;;;;;;;0.00;0.00;;;;;;;;;;1735045;28;20675;-71
2022/03/01 00:42:02;;;;;;;0.03;0.03;;;;;;;;;;1738640;28;20286;-71
2022/03/01 00:42:53;;;;;;;0.20;0.20;;;;;;;;;;1732328;28;20540;-71
2022/03/01 00:43:45;;;;;;;0.10;0.10;;;;;;;;;;1732428;28;20203;-71
2022/03/01 00:44:37;;;;;;;0.10;0.10;;;;;;;;;;1732500;28;20241;-71
2022/03/01 00:45:29;;;;;;;0.15;0.15;;;;;;;;;;1730382;28;20231;-71
2022/03/01 00:46:22;;;;;;;0.00;0.00;;;;;;;;;;1733300;28;20211;-71
2022/03/01 00:47:16;;;;;;;0.10;0.10;;;;;;;;;;1732507;28;20225;-71
2022/03/01 00:48:07;;;;;;;0.05;0.05;;;;;;;;;;1732680;28;20204;-71
2022/03/01 00:49:00;;;;;;;0.00;0.00;;;;;;;;;;1732621;28;20203;-71
2022/03/01 00:49:51;;;;;;;0.22;0.22;;;;;;;;;;1732523;28;20223;-71
2022/03/01 00:50:43;;;;;;;0.10;0.10;;;;;;;;;;1731125;28;20230;-71
2022/03/01 00:51:34;;;;;;;0.00;0.00;;;;;;;;;;1732227;28;20204;-71
2022/03/01 00:52:27;;;;;;;0.22;0.22;;;;;;;;;;1732344;28;20211;-71
2022/03/01 00:53:18;;;;;;;0.00;0.00;;;;;;;;;;1733219;28;20813;-71
2022/03/01 00:54:10;;;;;;;0.00;0.00;;;;;;;;;;1732338;28;20626;-71
2022/03/01 00:58:12;;;;;;;0.00;0.00;;;;;;;;;;1731690;28;20531;-71
2022/03/01 00:59:03;;;;;;;0.10;0.10;;;;;;;;;;1732187;28;20200;-71
2022/03/01 00:59:55;;;;;;;0.08;0.08;;;;;;;;;;1732217;28;20204;-71
2022/03/01 01:00:47;;;;;;;0.00;0.00;;;;;;;;;;1730611;28;20661;-71
2022/03/01 01:01:39;;;;;;;0.10;0.10;;;;;;;;;;1732777;28;20206;-71
2022/03/01 01:02:32;;;;;;;0.00;0.00;;;;;;;;;;1732776;28;20203;-71
2022/03/01 01:03:24;;;;;;;0.00;0.00;;;;;;;;;;1732272;28;20226;-71
2022/03/01 01:04:15;;;;;;;0.10;0.10;;;;;;;;;;1732144;28;20632;-71
2022/03/01 01:05:08;;;;;;;0.00;0.00;;;;;;;;;;1732888;28;20280;-71
2022/03/01 01:05:59;;;;;;;0.10;0.10;;;;;;;;;;1729848;28;20750;-71
2022/03/01 01:06:51;;;;;;;0.15;0.15;;;;;;;;;;1732710;28;20196;-71
2022/03/01 01:07:42;;;;;;;0.00;0.00;;;;;;;;;;1734146;28;20204;-71
2022/03/01 01:08:35;;;;;;;0.00;0.00;;;;;;;;;;1731482;28;20286;-71
2022/03/01 01:09:26;;;;;;;0.20;0.20;;;;;;;;;;1731956;28;20200;-71
2022/03/01 01:10:21;;;;;;;0.00;0.00;;;;;;;;;;1724348;28;20351;-71
2022/03/01 01:11:12;;;;;;;0.20;0.20;;;;;;;;;;1730698;28;20661;-71
2022/03/01 01:12:06;;;;;;;0.20;0.20;;;;;;;;;;1732119;28;20210;-71
2022/03/01 01:12:57;;;;;;;0.10;0.10;;;;;;;;;;1732568;28;20216;-71
2022/03/01 01:13:49;;;;;;;0.08;0.08;;;;;;;;;;1729569;28;20212;-71
2022/03/01 01:14:40;;;;;;;0.00;0.00;;;;;;;;;;1737398;28;20199;-72
2022/03/01 01:15:33;;;;;;;0.30;0.30;;;;;;;;;;1733732;28;20249;-72
2022/03/01 01:16:24;;;;;;;0.10;0.10;;;;;;;;;;1731601;28;20215;-72
2022/03/01 01:17:16;;;;;;;0.00;0.00;;;;;;;;;;1731699;28;20298;-72
2022/03/01 01:18:09;;;;;;;0.00;0.00;;;;;;;;;;1737728;28;20289;-72
2022/03/01 01:19:01;;;;;;;0.00;0.00;;;;;;;;;;1734566;28;20215;-72
2022/03/01 01:19:52;;;;;;;0.20;0.20;;;;;;;;;;1732285;28;20247;-71
2022/03/01 01:20:44;;;;;;;0.00;0.00;;;;;;;;;;1729852;28;20227;-71
2022/03/01 01:22:45;;;;;;;0.00;0.00;;;;;;;;;;1731808;28;20250;-71
2022/03/01 01:23:37;;;;;;;0.10;0.10;;;;;;;;;;1732583;28;20638;-71
2022/03/01 01:24:29;;;;;;;0.10;0.10;;;;;;;;;;1733698;28;20710;-72
2022/03/01 01:25:22;;;;;;;0.10;0.10;;;;;;;;;;1730233;28;20294;-72
2022/03/01 01:26:13;;;;;;;0.00;0.00;;;;;;;;;;1731108;28;20227;-72
2022/03/01 01:27:04;;;;;;;0.20;0.20;;;;;;;;;;1731844;28;20661;-72
2022/03/01 01:27:57;;;;;;;0.00;0.00;;;;;;;;;;1732459;28;20207;-72
2022/03/01 01:28:49;;;;;;;0.00;0.00;;;;;;;;;;1731284;28;20208;-72
2022/03/01 01:29:41;;;;;;;0.00;0.00;;;;;;;;;;1736229;28;20198;-72
2022/03/01 01:30:33;;;;;;;0.20;0.20;;;;;;;;;;1732420;28;21744;-72
2022/03/01 01:31:25;;;;;;;0.05;0.05;;;;;;;;;;1732323;28;20206;-72
2022/03/01 01:32:16;;;;;;;0.00;0.00;;;;;;;;;;1733043;28;20270;-72
2022/03/01 01:33:10;;;;;;;0.20;0.20;;;;;;;;;;1732463;28;20208;-72
2022/03/01 01:34:01;;;;;;;0.08;0.08;;;;;;;;;;1733117;28;20215;-72
2022/03/01 01:34:53;;;;;;;0.13;0.13;;;;;;;;;;1732268;28;20225;-72
2022/03/01 01:35:45;;;;;;;0.10;0.10;;;;;;;;;;1729153;28;20727;-72
2022/03/01 01:36:37;;;;;;;0.00;0.00;;;;;;;;;;1732509;28;20505;-72
2022/03/01 01:37:28;;;;;;;0.03;0.03;;;;;;;;;;1731649;28;20359;-72
2022/03/01 01:38:20;;;;;;;0.10;0.10;;;;;;;;;;1725542;28;20737;-72
2022/03/01 01:39:11;;;;;;;0.00;0.00;;;;;;;;;;1731144;28;20215;-72
2022/03/01 01:40:03;;;;;;;0.20;0.20;;;;;;;;;;1735570;28;20196;-72
2022/03/01 01:40:55;;;;;;;0.30;0.30;;;;;;;;;;1730521;28;20338;-72
2022/03/01 01:41:47;;;;;;;0.05;0.05;;;;;;;;;;1731808;28;20211;-71
2022/03/01 01:42:39;;;;;;;0.10;0.10;;;;;;;;;;1733768;28;20200;-71
2022/03/01 01:43:30;;;;;;;0.00;0.00;;;;;;;;;;1739258;28;20202;-71
2022/03/01 01:44:22;;;;;;;0.00;0.00;;;;;;;;;;1732711;28;20196;-71
2022/03/01 01:45:17;;;;;;;0.05;0.05;;;;;;;;;;1730537;28;20237;-71
2022/03/01 01:46:09;;;;;;;0.10;0.10;;;;;;;;;;1731315;28;20239;-71
2022/03/01 01:47:12;;;;;;;0.10;0.10;;;;;;;;;;1732221;28;20307;-71
2022/03/01 01:48:05;;;;;;;0.10;0.10;;;;;;;;;;1728556;28;20281;-71
2022/03/01 01:48:57;;;;;;;0.10;0.10;;;;;;;;;;1731837;28;20214;-72
2022/03/01 01:49:49;;;;;;;0.00;0.00;;;;;;;;;;1732358;28;20211;-72
2022/03/01 01:50:41;;;;;;;0.25;0.25;;;;;;;;;;1729546;28;20680;-72
2022/03/01 01:51:33;;;;;;;0.35;0.35;;;;;;;;;;1738566;28;20210;-72
2022/03/01 01:52:25;;;;;;;0.10;0.10;;;;;;;;;;1733823;28;20211;-72
2022/03/01 01:53:17;;;;;;;0.15;0.15;;;;;;;;;;1732522;28;20217;-72
2022/03/01 01:54:08;;;;;;;0.25;0.25;;;;;;;;;;1731146;28;20537;-72
2022/03/01 01:55:00;;;;;;;0.10;0.10;;;;;;;;;;1732248;28;20207;-72
2022/03/01 02:04:46;;;;;;;0.00;0.00;;;;;;;;;;1730352;28;20514;-72
2022/03/01 02:05:37;;;;;;;0.10;0.10;;;;;;;;;;1729592;28;20318;-72
2022/03/01 02:06:29;;;;;;;0.17;0.17;;;;;;;;;;1731346;28;20233;-72
2022/03/01 02:07:20;;;;;;;0.20;0.20;;;;;;;;;;1731198;28;20235;-72
2022/03/01 02:08:13;;;;;;;0.10;0.10;;;;;;;;;;1732045;28;20206;-72
2022/03/01 02:09:04;;;;;;;0.20;0.20;;;;;;;;;;1731971;28;20213;-72
2022/03/01 02:09:56;;;;;;;0.10;0.10;;;;;;;;;;1728093;28;20214;-72
2022/03/01 02:10:47;;;;;;;0.10;0.10;;;;;;;;;;1727929;28;20899;-72
2022/03/01 02:11:39;;;;;;;0.10;0.10;;;;;;;;;;1731772;28;20215;-72
2022/03/01 02:12:31;;;;;;;0.47;0.47;;;;;;;;;;1731214;28;20552;-72
2022/03/01 02:13:23;;;;;;;0.10;0.10;;;;;;;;;;1728828;28;20287;-72
2022/03/01 02:14:14;;;;;;;0.40;0.40;;;;;;;;;;1730920;28;20536;-72
2022/03/01 02:22:36;;;;;;;0.10;0.10;;;;;;;;;;1718359;28;20217;-72
2022/03/01 02:23:27;;;;;;;0.10;0.10;;;;;;;;;;1705331;29;20193;-72
2022/03/01 02:24:19;;;;;;;0.10;0.10;;;;;;;;;;1717604;28;20722;-72
2022/03/01 02:25:11;;;;;;;0.00;0.00;;;;;;;;;;1716211;28;20219;-72
2022/03/01 02:26:03;;;;;;;0.10;0.10;;;;;;;;;;1716897;28;20286;-72
2022/03/01 02:26:55;;;;;;;0.20;0.20;;;;;;;;;;1714632;28;20205;-72
2022/03/01 02:27:47;;;;;;;0.22;0.22;;;;;;;;;;1717921;28;20205;-72
2022/03/01 02:28:41;;;;;;;0.10;0.10;;;;;;;;;;1718591;28;20212;-72
2022/03/01 02:29:34;;;;;;;0.00;0.00;;;;;;;;;;1712859;28;20267;-72
2022/03/01 02:30:25;;;;;;;0.10;0.10;;;;;;;;;;1708964;28;20649;-72
2022/03/01 02:31:17;;;;;;;0.13;0.13;;;;;;;;;;1716445;28;20638;-72
2022/03/01 02:32:10;;;;;;;0.10;0.10;;;;;;;;;;1717449;28;20210;-72
2022/03/01 02:33:02;;;;;;;0.10;0.10;;;;;;;;;;1718620;28;20256;-72
2022/03/01 02:33:53;;;;;;;0.10;0.10;;;;;;;;;;1716444;28;20235;-72
2022/03/01 02:34:47;;;;;;;0.10;0.10;;;;;;;;;;1713277;28;20251;-72
2022/03/01 02:35:43;;;;;;;0.10;0.10;;;;;;;;;;1717278;28;20324;-72
2022/03/01 02:36:35;;;;;;;0.10;0.10;;;;;;;;;;1718587;28;20605;-72
2022/03/01 02:37:26;;;;;;;0.00;0.00;;;;;;;;;;1717639;28;20206;-72
2022/03/01 02:38:20;;;;;;;0.10;0.10;;;;;;;;;;1717773;28;20597;-71
2022/03/01 02:39:11;;;;;;;0.10;0.10;;;;;;;;;;1719992;28;21496;-71
2022/03/01 02:40:05;;;;;;;0.15;0.15;;;;;;;;;;1718454;28;20207;-71
2022/03/01 02:40:56;;;;;;;0.17;0.17;;;;;;;;;;1717212;28;20262;-72
2022/03/01 02:41:48;;;;;;;0.13;0.13;;;;;;;;;;1713894;28;20213;-72
2022/03/01 02:42:41;;;;;;;0.05;0.05;;;;;;;;;;1716609;28;20213;-72
2022/03/01 02:43:33;;;;;;;0.10;0.10;;;;;;;;;;1711959;28;20218;-72
2022/03/01 02:44:24;;;;;;;0.10;0.10;;;;;;;;;;1712409;28;20211;-71
2022/03/01 02:45:20;;;;;;;0.15;0.15;;;;;;;;;;1715837;28;20215;-71
2022/03/01 02:46:11;;;;;;;0.10;0.10;;;;;;;;;;1717726;28;20277;-71
2022/03/01 02:47:03;;;;;;;0.10;0.10;;;;;;;;;;1718397;28;20219;-71
2022/03/01 02:47:55;;;;;;;0.05;0.05;;;;;;;;;;1717288;28;20667;-72
2022/03/01 02:48:46;;;;;;;0.00;0.00;;;;;;;;;;1717489;28;20203;-72
2022/03/01 02:49:38;;;;;;;0.00;0.00;;;;;;;;;;1712809;28;20638;-72
2022/03/01 02:50:30;;;;;;;0.05;0.05;;;;;;;;;;1714920;28;20709;-72
2022/03/01 02:51:22;;;;;;;0.15;0.15;;;;;;;;;;1718633;28;20225;-72
2022/03/01 02:52:13;;;;;;;0.15;0.15;;;;;;;;;;1718328;28;20214;-72
2022/03/01 02:53:05;;;;;;;0.08;0.08;;;;;;;;;;1718386;28;20214;-72
2022/03/01 02:53:58;;;;;;;0.10;0.10;;;;;;;;;;1715950;28;20220;-72
2022/03/01 03:00:45;;;;;;;0.10;0.10;;;;;;;;;;1714733;28;20543;-71
2022/03/01 03:01:36;;;;;;;0.10;0.10;;;;;;;;;;1717600;28;20774;-71
2022/03/01 03:02:29;;;;;;;0.40;0.40;;;;;;;;;;1719160;28;20595;-71
2022/03/01 03:03:20;;;;;;;0.08;0.08;;;;;;;;;;1718210;28;20212;-71
2022/03/01 03:04:12;;;;;;;0.10;0.10;;;;;;;;;;1714600;28;20214;-71
2022/03/01 03:05:04;;;;;;;0.08;0.08;;;;;;;;;;1715919;28;20211;-71
2022/03/01 03:05:56;;;;;;;0.03;0.03;;;;;;;;;;1716079;28;20246;-71
2022/03/01 03:06:47;;;;;;;0.20;0.20;;;;;;;;;;1718472;28;20284;-71
2022/03/01 03:07:40;;;;;;;0.20;0.20;;;;;;;;;;1717711;28;20525;-71
2022/03/01 03:08:31;;;;;;;0.00;0.00;;;;;;;;;;1717871;28;20208;-71
2022/03/01 03:09:25;;;;;;;0.13;0.13;;;;;;;;;;1711533;28;20212;-72
2022/03/01 03:10:19;;;;;;;0.10;0.10;;;;;;;;;;1709833;28;20215;-72
2022/03/01 03:11:11;;;;;;;0.05;0.05;;;;;;;;;;1717571;28;20727;-72
2022/03/01 03:12:03;;;;;;;0.13;0.13;;;;;;;;;;1718019;28;20271;-72
2022/03/01 03:12:55;;;;;;;0.10;0.10;;;;;;;;;;1718672;28;20203;-72
2022/03/01 03:13:47;;;;;;;0.10;0.10;;;;;;;;;;1721150;28;20201;-72
2022/03/01 03:14:39;;;;;;;0.30;0.30;;;;;;;;;;1712591;28;20595;-72
2022/03/01 03:15:31;;;;;;;0.08;0.08;;;;;;;;;;1715824;28;20835;-72
2022/03/01 03:16:23;;;;;;;0.20;0.20;;;;;;;;;;1718642;28;20606;-72
2022/03/01 03:17:14;;;;;;;0.30;0.30;;;;;;;;;;1717735;28;20532;-72
2022/03/01 03:18:06;;;;;;;0.00;0.00;;;;;;;;;;1718168;28;21130;-72
2022/03/01 03:18:57;;;;;;;0.10;0.10;;;;;;;;;;1716635;28;20248;-72
2022/03/01 03:19:50;;;;;;;0.03;0.03;;;;;;;;;;1713249;28;20208;-72
2022/03/01 03:20:41;;;;;;;0.00;0.00;;;;;;;;;;1715922;28;20285;-72
2022/03/01 03:21:33;;;;;;;0.10;0.10;;;;;;;;;;1717892;28;20236;-72
2022/03/01 03:22:24;;;;;;;0.08;0.08;;;;;;;;;;1721315;28;20221;-72
2022/03/01 03:23:16;;;;;;;0.10;0.10;;;;;;;;;;1730462;28;20266;-72
2022/03/01 03:24:08;;;;;;;0.15;0.15;;;;;;;;;;1732740;28;20205;-72
2022/03/01 03:25:01;;;;;;;0.32;0.32;;;;;;;;;;1733233;28;20210;-72
2022/03/01 03:25:52;;;;;;;0.10;0.10;;;;;;;;;;1730469;28;20232;-72
2022/03/01 03:26:45;;;;;;;0.20;0.20;;;;;;;;;;1733574;28;20271;-72
2022/03/01 03:27:37;;;;;;;0.30;0.30;;;;;;;;;;1731975;28;20888;-72
2022/03/01 03:28:30;;;;;;;0.00;0.00;;;;;;;;;;1732764;28;20213;-72
2022/03/01 03:29:23;;;;;;;0.17;0.17;;;;;;;;;;1732876;28;20209;-72
2022/03/01 03:30:18;;;;;;;0.00;0.00;;;;;;;;;;1731131;28;20649;-72
2022/03/01 03:31:09;;;;;;;0.30;0.30;;;;;;;;;;1732359;28;20288;-71
2022/03/01 03:32:02;;;;;;;0.10;0.10;;;;;;;;;;1732169;28;20238;-71
2022/03/01 03:32:53;;;;;;;0.00;0.00;;;;;;;;;;1732532;28;20205;-71
2022/03/01 03:33:45;;;;;;;0.05;0.05;;;;;;;;;;1732197;28;20548;-71
2022/03/01 03:34:36;;;;;;;0.13;0.13;;;;;;;;;;1731625;28;20570;-71
2022/03/01 03:35:29;;;;;;;0.10;0.10;;;;;;;;;;1730571;28;20578;-71
2022/03/01 03:36:20;;;;;;;0.10;0.10;;;;;;;;;;1733130;28;20210;-71
2022/03/01 03:37:13;;;;;;;0.10;0.10;;;;;;;;;;1734069;28;20225;-72
2022/03/01 03:38:04;;;;;;;0.10;0.10;;;;;;;;;;1732721;28;20287;-72
2022/03/01 03:38:57;;;;;;;0.10;0.10;;;;;;;;;;1732479;28;20271;-72
2022/03/01 03:39:51;;;;;;;0.10;0.10;;;;;;;;;;1732905;28;20207;-72
2022/03/01 03:40:44;;;;;;;0.20;0.20;;;;;;;;;;1728993;28;20319;-72
2022/03/01 03:41:36;;;;;;;0.00;0.00;;;;;;;;;;1733404;28;20263;-71
2022/03/01 03:42:28;;;;;;;0.20;0.20;;;;;;;;;;1732491;28;20628;-71
2022/03/01 03:43:20;;;;;;;0.00;0.00;;;;;;;;;;1732605;28;20331;-71
2022/03/01 03:44:12;;;;;;;0.08;0.08;;;;;;;;;;1732870;28;20205;-71
2022/03/01 03:45:03;;;;;;;0.10;0.10;;;;;;;;;;1740120;28;20275;-71
2022/03/01 03:45:56;;;;;;;0.10;0.10;;;;;;;;;;1732349;28;20625;-71
2022/03/01 03:46:47;;;;;;;0.17;0.17;;;;;;;;;;1732356;28;20205;-71
2022/03/01 03:47:39;;;;;;;0.10;0.10;;;;;;;;;;1733629;28;20205;-71
2022/03/01 03:48:30;;;;;;;0.10;0.10;;;;;;;;;;1732929;28;20201;-71
2022/03/01 03:49:24;;;;;;;0.05;0.05;;;;;;;;;;1732578;28;20245;-72
2022/03/01 03:50:18;;;;;;;0.10;0.10;;;;;;;;;;1731194;28;20247;-72
2022/03/01 03:51:10;;;;;;;0.20;0.20;;;;;;;;;;1732188;28;20267;-72
2022/03/01 03:52:01;;;;;;;0.20;0.20;;;;;;;;;;1732867;28;20221;-72
2022/03/01 03:52:53;;;;;;;0.10;0.10;;;;;;;;;;1732459;28;20214;-72
2022/03/01 03:53:44;;;;;;;0.00;0.00;;;;;;;;;;1732044;28;20210;-72
2022/03/01 03:54:37;;;;;;;0.10;0.10;;;;;;;;;;1733188;28;20204;-72
2022/03/01 03:55:28;;;;;;;0.05;0.05;;;;;;;;;;1730441;28;20710;-72
2022/03/01 03:56:22;;;;;;;0.10;0.10;;;;;;;;;;1733361;28;20212;-71
2022/03/01 03:57:13;;;;;;;0.25;0.25;;;;;;;;;;1733767;28;20299;-71
2022/03/01 03:58:05;;;;;;;0.10;0.10;;;;;;;;;;1737850;28;20308;-71
2022/03/01 03:58:58;;;;;;;0.20;0.20;;;;;;;;;;1735457;28;20214;-71
2022/03/01 03:59:50;;;;;;;0.20;0.20;;;;;;;;;;1732369;28;20201;-71
2022/03/01 04:00:41;;;;;;;0.08;0.08;;;;;;;;;;1730366;28;20471;-71
2022/03/01 04:01:34;;;;;;;0.08;0.08;;;;;;;;;;1732956;28;20232;-71
2022/03/01 04:02:25;;;;;;;0.22;0.22;;;;;;;;;;1732561;28;20211;-72
2022/03/01 04:03:17;;;;;;;0.10;0.10;;;;;;;;;;1733024;28;20662;-72
2022/03/01 04:04:08;;;;;;;0.10;0.10;;;;;;;;;;1733273;28;20241;-72
2022/03/01 04:05:00;;;;;;;0.10;0.10;;;;;;;;;;1726461;28;20294;-72
2022/03/01 04:05:52;;;;;;;0.10;0.10;;;;;;;;;;1728141;28;20245;-72
2022/03/01 04:06:44;;;;;;;0.20;0.20;;;;;;;;;;1739797;28;20237;-71
2022/03/01 04:07:35;;;;;;;0.10;0.10;;;;;;;;;;1732883;28;20211;-71
2022/03/01 04:08:27;;;;;;;0.10;0.10;;;;;;;;;;1732616;28;20209;-71
2022/03/01 04:09:18;;;;;;;0.13;0.13;;;;;;;;;;1733149;28;20210;-71
2022/03/01 04:10:10;;;;;;;0.00;0.00;;;;;;;;;;1725752;28;20202;-71
2022/03/01 04:11:03;;;;;;;0.10;0.10;;;;;;;;;;1731507;28;20266;-71
2022/03/01 04:11:55;;;;;;;0.10;0.10;;;;;;;;;;1732139;28;20207;-71
2022/03/01 04:12:48;;;;;;;0.45;0.45;;;;;;;;;;1732518;28;20223;-71
2022/03/01 04:13:39;;;;;;;0.10;0.10;;;;;;;;;;1736550;28;20268;-71
2022/03/01 04:14:31;;;;;;;0.20;0.20;;;;;;;;;;1732724;28;20205;-71
2022/03/01 04:15:23;;;;;;;0.10;0.10;;;;;;;;;;1731003;28;20216;-71
2022/03/01 04:16:15;;;;;;;0.32;0.32;;;;;;;;;;1732177;28;20330;-71
2022/03/01 04:17:08;;;;;;;0.10;0.10;;;;;;;;;;1732472;28;20218;-71
2022/03/01 04:18:00;;;;;;;0.30;0.30;;;;;;;;;;1731953;28;20219;-71
2022/03/01 04:18:51;;;;;;;0.15;0.15;;;;;;;;;;1732047;28;20418;-71
2022/03/01 04:19:43;;;;;;;0.10;0.10;;;;;;;;;;1732762;28;20261;-71
2022/03/01 04:20:35;;;;;;;0.17;0.17;;;;;;;;;;1729889;28;20255;-72
2022/03/01 04:21:27;;;;;;;0.20;0.20;;;;;;;;;;1733124;28;20839;-72
2022/03/01 04:22:18;;;;;;;0.10;0.10;;;;;;;;;;1732227;28;20673;-72
2022/03/01 04:23:10;;;;;;;0.10;0.10;;;;;;;;;;1732771;28;20257;-72
2022/03/01 04:24:02;;;;;;;0.10;0.10;;;;;;;;;;1731908;28;20387;-72
2022/03/01 04:24:54;;;;;;;0.20;0.20;;;;;;;;;;1732161;28;20194;-72
2022/03/01 04:25:46;;;;;;;0.20;0.20;;;;;;;;;;1730275;28;20236;-72
2022/03/01 04:26:38;;;;;;;0.30;0.30;;;;;;;;;;1732858;28;20202;-72
2022/03/01 04:27:31;;;;;;;0.13;0.13;;;;;;;;;;1734055;28;20225;-72
2022/03/01 04:28:23;;;;;;;0.20;0.20;;;;;;;;;;1725803;28;20600;-72
2022/03/01 04:29:14;;;;;;;0.20;0.20;;;;;;;;;;1733141;28;20305;-72
2022/03/01 04:30:07;;;;;;;0.20;0.20;;;;;;;;;;1732653;28;20539;-72
2022/03/01 04:30:58;;;;;;;0.20;0.20;;;;;;;;;;1728977;28;20841;-72
2022/03/01 04:31:51;;;;;;;0.17;0.17;;;;;;;;;;1733083;28;20295;-72
2022/03/01 04:32:42;;;;;;;0.10;0.10;;;;;;;;;;1732130;28;20302;-72
2022/03/01 04:33:34;;;;;;;0.10;0.10;;;;;;;;;;1732773;28;20532;-72
2022/03/01 04:34:26;;;;;;;0.10;0.10;;;;;;;;;;1733807;28;20212;-72
2022/03/01 04:35:18;;;;;;;0.40;0.40;;;;;;;;;;1736884;28;20207;-72
2022/03/01 04:36:10;;;;;;;0.10;0.10;;;;;;;;;;1731681;28;20623;-72
2022/03/01 04:37:01;;;;;;;0.20;0.20;;;;;;;;;;1731462;28;20688;-72
2022/03/01 04:37:53;;;;;;;0.10;0.10;;;;;;;;;;1731899;28;20205;-72
2022/03/01 04:38:47;;;;;;;0.30;0.30;;;;;;;;;;1732367;28;20214;-72
2022/03/01 04:39:40;;;;;;;0.20;0.20;;;;;;;;;;1733227;28;20201;-72
2022/03/01 04:40:31;;;;;;;0.10;0.10;;;;;;;;;;1729980;28;20236;-72
2022/03/01 04:41:23;;;;;;;0.10;0.10;;;;;;;;;;1732699;28;20209;-72
2022/03/01 04:42:14;;;;;;;0.10;0.10;;;;;;;;;;1733311;28;20224;-72
2022/03/01 04:43:08;;;;;;;0.30;0.30;;;;;;;;;;1732274;28;20195;-72
2022/03/01 04:43:59;;;;;;;0.20;0.20;;;;;;;;;;1731681;28;20217;-72
2022/03/01 04:44:52;;;;;;;0.30;0.30;;;;;;;;;;1732889;28;20232;-72
2022/03/01 04:45:43;;;;;;;0.20;0.20;;;;;;;;;;1730131;28;20249;-72
2022/03/01 04:46:35;;;;;;;0.00;0.00;;;;;;;;;;1732836;28;20668;-72
2022/03/01 04:47:27;;;;;;;0.10;0.10;;;;;;;;;;1733179;28;20347;-71
2022/03/01 04:48:19;;;;;;;0.00;0.00;;;;;;;;;;1732641;28;20238;-71
2022/03/01 04:49:10;;;;;;;0.17;0.17;;;;;;;;;;1732012;28;20210;-71
2022/03/01 04:50:02;;;;;;;0.10;0.10;;;;;;;;;;1725029;28;20298;-71
2022/03/01 04:50:53;;;;;;;0.20;0.20;;;;;;;;;;1729275;28;20251;-71
2022/03/01 04:51:45;;;;;;;0.15;0.15;;;;;;;;;;1732639;28;20201;-71
2022/03/01 04:52:37;;;;;;;0.20;0.20;;;;;;;;;;1732130;28;20206;-71
2022/03/01 04:53:29;;;;;;;0.30;0.30;;;;;;;;;;1732900;28;20205;-72
2022/03/01 04:54:20;;;;;;;0.08;0.08;;;;;;;;;;1732124;28;20206;-72
2022/03/01 04:55:12;;;;;;;0.30;0.30;;;;;;;;;;1731426;28;20813;-72
2022/03/01 04:56:03;;;;;;;0.00;0.00;;;;;;;;;;1730946;28;20232;-72
2022/03/01 04:56:56;;;;;;;0.20;0.20;;;;;;;;;;1732173;28;20197;-72
2022/03/01 04:57:47;;;;;;;0.20;0.20;;;;;;;;;;1732037;28;20217;-72
2022/03/01 04:58:41;;;;;;;0.13;0.13;;;;;;;;;;1732678;28;20280;-72
2022/03/01 04:59:32;;;;;;;0.10;0.10;;;;;;;;;;1732623;28;20208;-72
2022/03/01 05:00:25;;;;;;;0.25;0.25;;;;;;;;;;1729950;28;20652;-72
2022/03/01 05:01:17;;;;;;;0.00;0.00;;;;;;;;;;1732919;28;20288;-72
2022/03/01 05:02:09;;;;;;;0.13;0.13;;;;;;;;;;1731362;28;20651;-72
2022/03/01 05:03:00;;;;;;;0.10;0.10;;;;;;;;;;1732450;28;20214;-72
2022/03/01 05:03:52;;;;;;;0.10;0.10;;;;;;;;;;1731943;28;20216;-72
2022/03/01 05:04:43;;;;;;;0.10;0.10;;;;;;;;;;1727767;28;20232;-72
2022/03/01 05:05:36;;;;;;;0.00;0.00;;;;;;;;;;1726589;28;20241;-72
2022/03/01 05:06:27;;;;;;;0.00;0.00;;;;;;;;;;1737392;28;20205;-72
2022/03/01 05:07:19;;;;;;;0.20;0.20;;;;;;;;;;1735242;28;20219;-72
2022/03/01 05:08:10;;;;;;;0.52;0.52;;;;;;;;;;1732055;28;20205;-72
2022/03/01 05:09:03;;;;;;;0.10;0.10;;;;;;;;;;1730889;28;20198;-72
2022/03/01 05:09:54;;;;;;;0.10;0.10;;;;;;;;;;1728519;28;20615;-72
2022/03/01 05:10:47;;;;;;;0.20;0.20;;;;;;;;;;1727976;28;20318;-72
2022/03/01 05:11:38;;;;;;;0.10;0.10;;;;;;;;;;1732901;28;20632;-72
2022/03/01 05:12:30;;;;;;;0.10;0.10;;;;;;;;;;1731833;28;20200;-72
2022/03/01 05:13:21;;;;;;;0.30;0.30;;;;;;;;;;1735570;28;20212;-72
2022/03/01 05:14:15;;;;;;;0.10;0.10;;;;;;;;;;1733283;28;20211;-72
2022/03/01 05:15:06;;;;;;;0.20;0.20;;;;;;;;;;1738928;28;20651;-72
2022/03/01 05:15:58;;;;;;;0.15;0.15;;;;;;;;;;1730604;28;20240;-72
2022/03/01 05:16:49;;;;;;;0.10;0.10;;;;;;;;;;1732891;28;20204;-72
2022/03/01 05:17:42;;;;;;;0.10;0.10;;;;;;;;;;1731996;28;20253;-72
2022/03/01 05:18:33;;;;;;;0.32;0.32;;;;;;;;;;1732167;28;20201;-72
2022/03/01 05:19:25;;;;;;;0.08;0.08;;;;;;;;;;1735412;28;20206;-72
2022/03/01 05:20:17;;;;;;;0.20;0.20;;;;;;;;;;1730896;28;20627;-72
2022/03/01 05:21:10;;;;;;;0.10;0.10;;;;;;;;;;1730780;28;20597;-72
2022/03/01 05:22:01;;;;;;;0.10;0.10;;;;;;;;;;1731907;28;20549;-72
2022/03/01 05:22:54;;;;;;;0.15;0.15;;;;;;;;;;1732232;28;20569;-72
2022/03/01 05:23:45;;;;;;;0.10;0.10;;;;;;;;;;1732468;28;20805;-72
2022/03/01 05:24:37;;;;;;;0.00;0.00;;;;;;;;;;1733272;28;20584;-72
2022/03/01 05:25:28;;;;;;;0.40;0.40;;;;;;;;;;1730138;28;20239;-72
2022/03/01 05:26:20;;;;;;;0.20;0.20;;;;;;;;;;1732733;28;20192;-72
2022/03/01 05:27:11;;;;;;;0.10;0.10;;;;;;;;;;1731608;28;20213;-72
2022/03/01 05:28:04;;;;;;;0.17;0.17;;;;;;;;;;1731961;28;20259;-72
2022/03/01 05:28:55;;;;;;;0.10;0.10;;;;;;;;;;1733283;28;20207;-72
2022/03/01 05:29:50;;;;;;;0.15;0.15;;;;;;;;;;1732907;28;20207;-72
2022/03/01 05:30:41;;;;;;;0.10;0.10;;;;;;;;;;1728946;28;20267;-72
2022/03/01 05:31:34;;;;;;;0.20;0.20;;;;;;;;;;1732663;28;20239;-72
2022/03/01 05:32:25;;;;;;;0.17;0.17;;;;;;;;;;1732296;28;20231;-72
2022/03/01 05:33:17;;;;;;;0.10;0.10;;;;;;;;;;1732402;28;20199;-72
2022/03/01 05:34:08;;;;;;;0.10;0.10;;;;;;;;;;1732172;28;20605;-72
2022/03/01 05:35:02;;;;;;;0.10;0.10;;;;;;;;;;1733033;28;20189;-72
2022/03/01 05:35:53;;;;;;;0.30;0.30;;;;;;;;;;1730307;28;20293;-72
2022/03/01 05:36:45;;;;;;;0.15;0.15;;;;;;;;;;1733147;28;20532;-72
2022/03/01 05:37:37;;;;;;;0.10;0.10;;;;;;;;;;1732133;28;20205;-72
2022/03/01 05:38:29;;;;;;;0.10;0.10;;;;;;;;;;1732651;28;20314;-72
2022/03/01 05:39:21;;;;;;;0.10;0.10;;;;;;;;;;1732059;28;20214;-72
2022/03/01 05:40:13;;;;;;;0.10;0.10;;;;;;;;;;1730046;28;20223;-72
2022/03/01 05:41:04;;;;;;;0.10;0.10;;;;;;;;;;1733494;28;20234;-72
2022/03/01 05:41:57;;;;;;;0.10;0.10;;;;;;;;;;1738649;28;20605;-72
2022/03/01 05:42:48;;;;;;;0.00;0.00;;;;;;;;;;1732906;28;20206;-72
2022/03/01 05:43:40;;;;;;;0.00;0.00;;;;;;;;;;1732468;28;20603;-72
2022/03/01 05:44:31;;;;;;;0.10;0.10;;;;;;;;;;1733763;28;20209;-71
2022/03/01 05:45:25;;;;;;;0.10;0.10;;;;;;;;;;1730556;28;20326;-71
2022/03/01 05:46:16;;;;;;;0.10;0.10;;;;;;;;;;1730561;28;20256;-71
2022/03/01 05:47:08;;;;;;;0.10;0.10;;;;;;;;;;1731724;28;20265;-71
2022/03/01 05:48:00;;;;;;;0.05;0.05;;;;;;;;;;1732348;28;20234;-71
2022/03/01 05:48:53;;;;;;;0.10;0.10;;;;;;;;;;1732424;28;20211;-71
2022/03/01 05:49:44;;;;;;;0.10;0.10;;;;;;;;;;1732464;28;20263;-71
2022/03/01 05:50:36;;;;;;;0.10;0.10;;;;;;;;;;1730196;28;20247;-71